Time;durP1;ratioP1;P1;durP2;ratioP2;P2;SDS_P1;SDS_P2;PMS_P1;PMS_P2;Temp;Humidity;BMP_temperature;BMP_pressure;BME280_temperature;BME280_humidity;BME280_pressure;Samples;Min_cycle;Max_cycle;Signal;HPM_P1;HPM_P2
2021/10/10 00:06:46;;;;;;;17.20;11.60;;;;;;;4.15;60.65;101124.07;461567;1192;140499;-60
2021/10/10 00:16:52;;;;;;;18.60;13.40;;;;;;;4.09;60.92;101121.21;475286;1190;141281;-59
2021/10/10 00:26:57;;;;;;;17.40;14.50;;;;;;;4.09;60.84;101115.31;476889;1190;141178;-59
2021/10/10 00:37:04;;;;;;;20.80;13.90;;;;;;;4.17;61.09;101111.39;477620;1190;141599;-58
2021/10/10 00:47:10;;;;;;;18.10;13.20;;;;;;;4.15;61.01;101103.63;477700;1190;141147;-59
2021/10/10 00:57:18;;;;;;;22.10;13.80;;;;;;;3.93;61.02;101099.73;474213;1190;140570;-59
2021/10/10 01:07:26;;;;;;;19.00;14.00;;;;;;;3.73;61.46;101090.96;475583;1190;143252;-59
2021/10/10 01:17:33;;;;;;;16.40;12.70;;;;;;;3.53;61.44;101088.94;476532;1191;142240;-60
2021/10/10 01:27:39;;;;;;;20.50;14.00;;;;;;;3.36;62.05;101083.91;477281;1192;140431;-59
2021/10/10 01:37:46;;;;;;;21.00;14.40;;;;;;;3.27;62.17;101074.66;477678;1191;141541;-59
2021/10/10 01:47:52;;;;;;;18.70;12.80;;;;;;;3.28;62.59;101076.20;476874;1190;142731;-59
2021/10/10 01:58:00;;;;;;;20.70;13.30;;;;;;;3.37;62.74;101069.36;467894;1192;142051;-58
2021/10/10 02:08:05;;;;;;;;;;;;;;;3.42;62.44;101063.77;475621;1191;141528;-58
2021/10/10 02:18:12;;;;;;;18.90;12.80;;;;;;;3.33;62.59;101063.70;477265;1191;127727;-59
2021/10/10 02:28:18;;;;;;;21.30;14.10;;;;;;;3.17;62.54;101060.56;466082;1191;141046;-60
2021/10/10 02:38:24;;;;;;;18.30;14.90;;;;;;;2.95;63.09;101061.63;459907;1192;141486;-58
2021/10/10 02:48:30;;;;;;;20.50;15.70;;;;;;;2.73;63.27;101060.41;460545;1192;145280;-59
2021/10/10 02:58:36;;;;;;;20.20;14.70;;;;;;;2.61;63.75;101055.68;469815;1191;140448;-59
2021/10/10 03:08:42;;;;;;;19.00;14.00;;;;;;;2.56;63.98;101046.03;476990;1191;142338;-58
2021/10/10 03:18:48;;;;;;;23.40;16.80;;;;;;;2.68;64.36;101045.08;477704;1184;142976;-59
2021/10/10 03:28:54;;;;;;;21.20;15.50;;;;;;;2.68;63.97;101037.81;477863;1191;141750;-59
2021/10/10 03:39:00;;;;;;;22.50;16.70;;;;;;;2.52;64.30;101033.43;476987;1190;141577;-60
2021/10/10 03:49:07;;;;;;;21.80;16.30;;;;;;;2.36;64.71;101020.40;477824;1190;142276;-60
2021/10/10 03:59:14;;;;;;;21.80;15.70;;;;;;;2.19;65.00;101011.88;471629;1192;141529;-58
2021/10/10 04:09:19;;;;;;;21.10;15.00;;;;;;;2.25;65.39;101002.16;477353;1190;210126;-60
2021/10/10 04:19:25;;;;;;;20.90;15.00;;;;;;;2.40;65.29;100996.70;477772;1190;142289;-59
2021/10/10 04:29:31;;;;;;;20.70;14.90;;;;;;;2.56;65.12;100993.47;471765;1190;143053;-59
2021/10/10 04:39:37;;;;;;;19.10;14.40;;;;;;;2.51;65.12;100990.40;477900;1190;141418;-59
2021/10/10 04:49:43;;;;;;;22.30;16.30;;;;;;;2.29;65.27;100985.02;477856;1183;144682;-59
2021/10/10 04:59:50;;;;;;;19.60;14.80;;;;;;;2.16;65.43;100981.83;477051;1190;140846;-59
2021/10/10 05:09:56;;;;;;;22.10;15.60;;;;;;;2.07;65.54;100981.03;477779;1190;141156;-59
2021/10/10 05:20:09;;;;;;;20.70;15.50;;;;;;;2.20;65.78;100983.35;477849;1190;142906;-58
2021/10/10 05:30:15;;;;;;;23.50;17.10;;;;;;;2.54;65.47;100979.13;474051;1190;145631;-59
2021/10/10 05:40:21;;;;;;;21.40;16.10;;;;;;;2.90;65.28;100982.96;477754;1190;141770;-59
2021/10/10 05:50:28;;;;;;;20.10;14.60;;;;;;;3.58;64.87;100976.30;477004;1190;141259;-59
2021/10/10 06:00:34;;;;;;;21.50;15.30;;;;;;;7.57;62.19;100981.83;470862;1191;142916;-60
2021/10/10 06:10:40;;;;;;;18.20;15.40;;;;;;;13.44;55.25;100973.50;470024;1191;141464;-60
2021/10/10 06:20:47;;;;;;;16.20;14.10;;;;;;;17.17;48.92;100968.69;476903;1191;142524;-59
2021/10/10 06:30:54;;;;;;;14.70;13.20;;;;;;;19.89;43.77;100965.20;477740;1191;142721;-61
2021/10/10 06:41:00;;;;;;;15.30;13.80;;;;;;;22.31;39.62;100957.59;477854;1190;141432;-60
2021/10/10 06:51:07;;;;;;;15.10;13.60;;;;;;;24.36;36.12;100955.71;468498;1191;141260;-56
2021/10/10 07:01:16;;;;;;;14.70;13.10;;;;;;;27.06;33.27;100952.28;472165;1191;145124;-58
2021/10/10 07:11:23;;;;;;;13.10;11.60;;;;;;;28.90;29.92;100946.27;459622;1190;141843;-58
2021/10/10 07:21:41;;;;;;;14.00;12.60;;;;;;;30.72;27.36;100936.23;467653;1190;140951;-59
2021/10/10 07:31:47;;;;;;;13.70;12.20;;;;;;;31.16;25.27;100933.33;477684;1190;141156;-58
2021/10/10 07:41:54;;;;;;;12.50;11.30;;;;;;;31.23;23.82;100935.02;476922;1190;141378;-59
2021/10/10 07:52:02;;;;;;;12.50;11.30;;;;;;;32.23;22.72;100933.04;477239;1191;143476;-58
2021/10/10 08:02:08;;;;;;;11.20;10.20;;;;;;;33.34;21.74;100931.61;477165;1192;142332;-60
2021/10/10 08:12:14;;;;;;;8.50;7.90;;;;;;;33.56;20.32;100934.79;474230;1192;143197;-59
2021/10/10 08:22:20;;;;;;;10.00;8.50;;;;;;;33.74;19.84;100927.16;461140;1192;140327;-57
2021/10/10 08:32:25;;;;;;;10.00;8.50;;;;;;;34.42;19.18;100926.90;460765;1190;20001967;-59
2021/10/10 08:42:35;;;;;;;6.40;5.50;;;;;;;34.69;18.35;100930.11;464154;1184;142119;-59
2021/10/10 08:52:42;;;;;;;9.10;5.60;;;;;;;33.07;17.70;100926.38;477513;1190;141356;-57
2021/10/10 09:02:51;;;;;;;10.80;6.20;;;;;;;30.54;17.87;100910.79;476799;1190;142872;-58
2021/10/10 09:13:06;;;;;;;8.10;5.70;;;;;;;24.11;20.31;100902.06;466659;1190;141072;-58
2021/10/10 09:23:31;;;;;;;8.40;5.80;;;;;;;19.70;23.03;100904.65;476687;1191;141370;-55
2021/10/10 09:33:43;;;;;;;7.50;5.50;;;;;;;16.56;24.96;100902.18;477219;1191;141108;-59
2021/10/10 09:44:12;;;;;;;6.70;4.70;;;;;;;14.69;26.92;100899.10;472660;1191;140477;-56
2021/10/10 09:54:19;;;;;;;5.20;4.50;;;;;;;13.65;28.29;100892.60;464243;1192;145105;-53
2021/10/10 10:04:28;;;;;;;5.90;3.80;;;;;;;12.81;29.44;100892.37;477048;1191;141481;-57
2021/10/10 10:14:35;;;;;;;6.20;4.80;;;;;;;12.29;30.18;100897.10;475337;1191;141308;-56
2021/10/10 10:24:44;;;;;;;9.60;5.00;;;;;;;11.90;31.02;100890.39;477273;1190;141731;-57
2021/10/10 10:35:02;;;;;;;5.80;4.10;;;;;;;11.75;31.50;100884.27;474639;1191;142628;-56
2021/10/10 10:45:22;;;;;;;5.60;3.20;;;;;;;11.66;31.36;100877.67;458706;1192;142159;-56
2021/10/10 10:55:31;;;;;;;7.80;4.40;;;;;;;11.49;31.43;100866.56;477169;1190;140775;-57
2021/10/10 11:05:46;;;;;;;;;;;;;;;11.60;32.19;100866.06;474437;1190;142426;-57
2021/10/10 11:15:55;;;;;;;9.60;5.20;;;;;;;11.52;32.11;100857.31;465029;1191;127810;-57
2021/10/10 11:26:05;;;;;;;5.40;4.00;;;;;;;11.46;32.34;100846.20;477250;1191;140383;-57
2021/10/10 11:36:13;;;;;;;9.10;4.50;;;;;;;11.46;32.53;100837.08;469376;1190;141237;-57
2021/10/10 11:46:20;;;;;;;7.80;4.50;;;;;;;11.49;32.61;100832.89;477115;1191;141187;-57
2021/10/10 11:56:27;;;;;;;14.60;4.60;;;;;;;11.58;32.83;100817.39;467569;1190;143234;-58
2021/10/10 12:06:33;;;;;;;5.50;4.20;;;;;;;11.62;32.42;100810.88;470307;1190;142058;-60
2021/10/10 12:16:47;;;;;;;9.50;4.10;;;;;;;11.68;32.87;100799.52;465425;1190;141057;-60
2021/10/10 12:26:55;;;;;;;5.10;4.00;;;;;;;11.70;32.77;100782.95;468535;1190;141682;-61
2021/10/10 12:37:01;;;;;;;8.70;4.80;;;;;;;11.42;32.68;100779.77;464360;1191;141618;-60
2021/10/10 12:47:07;;;;;;;7.50;4.60;;;;;;;11.33;32.89;100778.07;470081;1191;141085;-60
2021/10/10 12:57:17;;;;;;;10.40;4.40;;;;;;;11.13;33.25;100766.60;477120;1191;141847;-61
2021/10/10 13:07:23;;;;;;;7.30;5.50;;;;;;;11.01;33.94;100761.52;477255;1190;143423;-61
2021/10/10 13:17:29;;;;;;;10.70;6.00;;;;;;;11.17;34.12;100754.64;474378;1190;140698;-60
2021/10/10 13:27:36;;;;;;;5.30;4.70;;;;;;;11.52;34.46;100737.90;458550;1190;10002140;-60
2021/10/10 13:37:42;;;;;;;7.70;5.10;;;;;;;11.84;34.03;100728.07;469491;1191;145867;-63
2021/10/10 13:47:48;;;;;;;6.90;4.20;;;;;;;12.02;34.21;100719.58;476454;1190;141051;-60
2021/10/10 13:57:54;;;;;;;6.70;4.90;;;;;;;12.05;33.93;100711.05;472681;1190;140122;-60
2021/10/10 14:08:01;;;;;;;6.20;4.80;;;;;;;12.03;33.56;100707.47;473172;1190;141474;-61
2021/10/10 14:18:07;;;;;;;7.90;4.80;;;;;;;12.05;33.61;100699.44;470910;1190;141086;-62
2021/10/10 14:28:13;;;;;;;5.90;4.90;;;;;;;11.99;33.66;100695.18;477309;1191;141770;-62
2021/10/10 14:38:20;;;;;;;6.90;5.00;;;;;;;11.77;34.11;100692.95;471311;1178;142782;-61
2021/10/10 14:48:26;;;;;;;6.90;5.00;;;;;;;11.38;34.93;100689.67;461236;1191;10002670;-62
2021/10/10 14:58:33;;;;;;;11.60;5.60;;;;;;;11.05;35.72;100675.46;469294;1191;10001191;-61
2021/10/10 15:08:39;;;;;;;10.10;6.50;;;;;;;10.84;36.14;100665.78;474646;1190;142177;-61
2021/10/10 15:18:45;;;;;;;8.60;6.30;;;;;;;10.65;36.52;100664.95;477474;1190;141616;-61
2021/10/10 15:28:52;;;;;;;7.40;6.60;;;;;;;10.48;37.02;100656.11;477474;1190;144559;-62
2021/10/10 15:38:58;;;;;;;9.40;6.90;;;;;;;10.35;37.36;100647.89;468600;1190;10002815;-62
2021/10/10 15:49:04;;;;;;;9.60;6.40;;;;;;;10.07;37.67;100644.95;474853;1190;143475;-61
2021/10/10 15:59:10;;;;;;;9.50;6.40;;;;;;;9.65;38.67;100641.03;465662;1190;141146;-62
2021/10/10 16:09:16;;;;;;;11.00;6.60;;;;;;;9.22;39.47;100633.92;477504;1190;142894;-62
2021/10/10 16:19:22;;;;;;;9.20;6.80;;;;;;;8.86;40.23;100636.77;464787;1190;141460;-61
2021/10/10 16:29:30;;;;;;;10.90;7.40;;;;;;;8.59;41.18;100643.08;460003;1192;141823;-59
2021/10/10 16:39:49;;;;;;;13.70;8.00;;;;;;;8.31;41.89;100643.23;462574;1190;140580;-62
2021/10/10 16:49:55;;;;;;;8.90;8.00;;;;;;;7.99;42.87;100644.04;476298;1190;140647;-63
2021/10/10 17:00:02;;;;;;;13.20;8.50;;;;;;;7.72;43.71;100640.13;460074;1190;144231;-61
2021/10/10 17:10:10;;;;;;;13.60;9.60;;;;;;;7.41;44.68;100644.48;460903;1192;143217;-62
2021/10/10 17:20:15;;;;;;;11.50;8.20;;;;;;;7.16;45.41;100644.10;461923;1192;141116;-61
2021/10/10 17:30:22;;;;;;;11.40;8.30;;;;;;;6.98;46.08;100633.36;462263;1192;141958;-61
2021/10/10 17:40:28;;;;;;;12.70;9.30;;;;;;;6.86;46.73;100633.20;462319;1191;183924;-60
2021/10/10 17:50:34;;;;;;;15.30;11.60;;;;;;;6.70;47.29;100634.92;460079;1192;141096;-62
2021/10/10 18:00:52;;;;;;;17.40;10.60;;;;;;;6.57;47.61;100634.98;461201;1193;141204;-60
2021/10/10 18:11:06;;;;;;;17.70;10.90;;;;;;;6.35;48.11;100628.15;463461;1192;142262;-60
2021/10/10 18:21:12;;;;;;;18.40;12.40;;;;;;;6.17;48.65;100619.81;461710;1177;140719;-60
2021/10/10 18:31:19;;;;;;;20.10;12.20;;;;;;;6.08;48.76;100614.84;460401;1192;141345;-60
2021/10/10 18:41:27;;;;;;;22.90;14.00;;;;;;;6.07;48.63;100613.67;465635;1191;141497;-62
2021/10/10 18:51:32;;;;;;;;;;;;;;;6.02;48.62;100609.96;471495;1191;140672;-60
2021/10/10 19:01:38;;;;;;;19.50;14.10;;;;;;;5.96;49.09;100607.70;470581;1190;127328;-62
2021/10/10 19:11:46;;;;;;;21.60;15.30;;;;;;;5.85;49.27;100601.20;462623;1190;140448;-60
2021/10/10 19:21:52;;;;;;;21.50;13.90;;;;;;;5.69;49.61;100599.73;473491;1190;142038;-60
2021/10/10 19:31:58;;;;;;;20.70;13.40;;;;;;;5.57;49.84;100594.66;477652;1190;141493;-62
2021/10/10 19:42:05;;;;;;;17.10;12.30;;;;;;;5.51;50.07;100589.10;476859;1190;141607;-61
2021/10/10 19:52:11;;;;;;;17.50;11.00;;;;;;;5.41;50.48;100594.23;474017;1190;141974;-59
2021/10/10 20:02:18;;;;;;;18.70;11.50;;;;;;;5.27;50.66;100596.33;461348;1190;142377;-60
2021/10/10 20:12:24;;;;;;;19.30;11.60;;;;;;;5.10;51.11;100589.81;477703;1190;141344;-61
2021/10/10 20:22:31;;;;;;;19.20;13.20;;;;;;;4.97;51.64;100575.91;477835;1190;141042;-61
2021/10/10 20:32:37;;;;;;;18.30;11.00;;;;;;;4.83;51.93;100572.78;472370;1190;141536;-61
2021/10/10 20:42:43;;;;;;;19.00;12.40;;;;;;;4.61;52.56;100555.45;477753;1190;183266;-61
2021/10/10 20:52:49;;;;;;;19.80;11.50;;;;;;;4.38;53.10;100549.02;466918;1190;141163;-61
2021/10/10 21:02:56;;;;;;;20.10;13.10;;;;;;;4.20;53.77;100539.38;468238;1190;140516;-60
2021/10/10 21:13:02;;;;;;;22.20;14.30;;;;;;;3.98;54.85;100532.06;460558;1190;141708;-63
2021/10/10 21:23:08;;;;;;;17.70;13.30;;;;;;;3.59;55.82;100523.34;477702;1190;141255;-63
2021/10/10 21:33:31;;;;;;;25.70;18.00;;;;;;;3.32;56.19;100513.65;469214;1190;141893;-64
2021/10/10 21:43:37;;;;;;;27.00;17.70;;;;;;;3.00;57.62;100514.57;475926;1192;142571;-64
2021/10/10 21:53:43;;;;;;;28.40;20.80;;;;;;;2.68;58.50;100506.80;462512;1191;142257;-62
2021/10/10 22:03:49;;;;;;;29.10;17.90;;;;;;;2.43;59.33;100497.88;461055;1191;142102;-61
2021/10/10 22:13:56;;;;;;;26.20;18.30;;;;;;;2.32;59.53;100485.63;461604;1190;141318;-61
2021/10/10 22:24:06;;;;;;;29.60;19.00;;;;;;;2.20;59.95;100481.47;461980;1192;142245;-61
2021/10/10 22:34:12;;;;;;;33.40;20.30;;;;;;;2.01;60.59;100471.21;461776;1191;145087;-61
2021/10/10 22:44:18;;;;;;;26.60;18.20;;;;;;;1.76;60.94;100461.02;460036;1192;141284;-62
2021/10/10 22:54:25;;;;;;;31.40;19.00;;;;;;;1.56;61.45;100460.25;462134;1191;143502;-61
2021/10/10 23:04:31;;;;;;;34.40;21.00;;;;;;;1.44;62.37;100443.84;460883;1191;141181;-62
2021/10/10 23:14:37;;;;;;;22.50;15.80;;;;;;;1.39;62.48;100426.80;461436;1191;146717;-62
2021/10/10 23:24:43;;;;;;;26.10;17.30;;;;;;;1.39;62.76;100423.70;460820;1192;141815;-61
2021/10/10 23:34:49;;;;;;;34.60;23.90;;;;;;;1.35;63.10;100425.31;459674;1192;146445;-60
2021/10/10 23:44:55;;;;;;;41.20;23.80;;;;;;;1.42;63.18;100424.19;472197;1184;143195;-61
2021/10/10 23:55:02;;;;;;;30.30;21.70;;;;;;;1.27;63.26;100415.75;477712;1190;142387;-61
